Time;durP1;ratioP1;P1;durP2;ratioP2;P2;SDS_P1;SDS_P2;PMS_P1;PMS_P2;Temp;Humidity;BMP_temperature;BMP_pressure;BME280_temperature;BME280_humidity;BME280_pressure;Samples;Min_cycle;Max_cycle;Signal;HPM_P1;HPM_P2
2022/02/22 00:00:35;;;;;;;2.45;0.60;;;6.50;81.70;;;;;;4985981;28;20052;-71
2022/02/22 00:03:03;;;;;;;0.68;0.40;;;6.50;81.60;;;;;;4988757;28;20150;-70
2022/02/22 00:05:31;;;;;;;1.00;0.40;;;6.50;81.50;;;;;;4987781;28;20112;-70
2022/02/22 00:08:01;;;;;;;3.15;0.38;;;6.50;81.50;;;;;;4989931;28;20049;-70
2022/02/22 00:10:30;;;;;;;2.58;0.68;;;6.40;81.30;;;;;;4988798;28;20049;-70
2022/02/22 00:12:57;;;;;;;4.70;0.88;;;6.40;81.30;;;;;;4990661;28;20042;-70
2022/02/22 00:15:27;;;;;;;3.05;0.40;;;6.40;81.40;;;;;;4990159;28;20137;-70
2022/02/22 00:17:55;;;;;;;2.88;1.05;;;6.40;81.30;;;;;;4989736;28;20567;-71
2022/02/22 00:20:30;;;;;;;3.47;0.80;;;6.40;81.30;;;;;;4988309;28;21999;-71
2022/02/22 00:22:59;;;;;;;3.72;1.27;;;6.40;81.20;;;;;;4990234;28;20402;-70
2022/02/22 00:25:27;;;;;;;6.97;1.33;;;6.40;81.10;;;;;;4988531;28;20062;-70
2022/02/22 00:27:55;;;;;;;5.70;0.68;;;6.50;80.90;;;;;;4984655;28;20133;-70
2022/02/22 00:30:23;;;;;;;1.40;0.40;;;6.50;80.90;;;;;;4978841;28;20100;-70
2022/02/22 00:32:54;;;;;;;5.72;1.02;;;6.50;80.90;;;;;;4978106;28;20054;-71
2022/02/22 00:35:23;;;;;;;4.15;0.50;;;6.50;80.70;;;;;;4982427;28;20135;-71
2022/02/22 00:37:58;;;;;;;3.13;0.55;;;6.50;80.70;;;;;;4986091;28;20137;-71
2022/02/22 00:40:25;;;;;;;8.48;0.55;;;6.50;80.60;;;;;;4988039;28;20042;-70
2022/02/22 00:42:56;;;;;;;3.53;0.90;;;6.50;80.70;;;;;;4969104;28;20046;-70
2022/02/22 00:45:23;;;;;;;4.80;0.95;;;6.50;80.80;;;;;;4991407;28;20050;-70
2022/02/22 00:47:55;;;;;;;4.50;1.20;;;6.50;80.80;;;;;;4990131;28;20046;-70
2022/02/22 00:50:28;;;;;;;2.83;0.93;;;6.50;80.80;;;;;;4982752;28;20177;-72
2022/02/22 00:53:01;;;;;;;2.28;0.63;;;6.50;81.00;;;;;;4987182;28;20078;-71
2022/02/22 00:55:33;;;;;;;2.80;0.45;;;6.50;81.10;;;;;;4984134;28;20054;-72
2022/02/22 00:58:11;;;;;;;3.03;0.70;;;6.50;81.10;;;;;;4983274;28;20049;-70
2022/02/22 01:00:39;;;;;;;3.13;0.73;;;6.50;81.10;;;;;;4980642;28;20161;-71
2022/02/22 01:03:08;;;;;;;3.17;0.63;;;6.50;81.20;;;;;;4980861;28;20165;-71
2022/02/22 01:05:49;;;;;;;2.40;0.43;;;6.50;81.30;;;;;;4985874;28;20054;-70
2022/02/22 01:08:17;;;;;;;2.47;0.73;;;6.50;81.40;;;;;;4985602;28;20093;-71
2022/02/22 01:10:47;;;;;;;3.03;1.02;;;6.40;81.60;;;;;;4990718;28;20052;-74
2022/02/22 01:13:15;;;;;;;3.85;1.23;;;6.40;81.10;;;;;;4988894;28;20047;-69
2022/02/22 01:15:44;;;;;;;2.50;0.70;;;6.30;81.00;;;;;;4989492;28;20115;-71
2022/02/22 01:18:15;;;;;;;3.97;0.90;;;6.30;80.80;;;;;;4986963;28;20137;-71
2022/02/22 01:20:42;;;;;;;3.08;0.85;;;6.30;80.60;;;;;;4988772;28;20697;-69
2022/02/22 01:23:20;;;;;;;4.38;0.68;;;6.30;80.60;;;;;;4989962;28;20517;-69
2022/02/22 01:25:50;;;;;;;4.45;1.10;;;6.20;80.60;;;;;;4986008;28;20054;-70
2022/02/22 01:28:18;;;;;;;3.20;0.93;;;6.20;80.60;;;;;;4983094;28;20761;-71
2022/02/22 01:30:45;;;;;;;4.90;1.10;;;6.10;80.60;;;;;;4987894;28;20050;-69
2022/02/22 01:33:20;;;;;;;2.75;1.00;;;6.10;80.60;;;;;;4990354;28;20050;-70
2022/02/22 01:35:47;;;;;;;2.38;0.73;;;6.10;80.60;;;;;;4992501;28;20054;-71
2022/02/22 01:38:20;;;;;;;2.95;1.13;;;6.10;80.40;;;;;;4992080;28;20057;-70
2022/02/22 01:40:49;;;;;;;4.88;0.45;;;6.00;80.30;;;;;;4992507;28;20050;-70
2022/02/22 01:43:16;;;;;;;4.82;0.55;;;6.00;80.40;;;;;;4988357;28;20052;-70
2022/02/22 01:45:46;;;;;;;3.15;0.80;;;6.00;80.40;;;;;;4988525;28;20065;-70
2022/02/22 01:48:14;;;;;;;2.78;0.77;;;6.00;80.30;;;;;;4988613;28;20053;-70
2022/02/22 01:50:42;;;;;;;5.65;1.23;;;6.00;80.40;;;;;;4985671;28;20057;-71
2022/02/22 01:53:14;;;;;;;2.33;0.77;;;5.90;80.30;;;;;;4966849;28;20050;-70
2022/02/22 01:55:48;;;;;;;6.05;0.65;;;5.90;80.30;;;;;;4988319;28;20053;-72
2022/02/22 01:58:19;;;;;;;6.05;0.80;;;5.90;80.20;;;;;;4982950;28;20061;-72
2022/02/22 02:00:49;;;;;;;3.58;0.82;;;5.90;80.20;;;;;;4980346;28;20128;-70
2022/02/22 02:03:28;;;;;;;3.63;0.88;;;5.80;80.20;;;;;;4985355;28;20049;-71
2022/02/22 02:06:11;;;;;;;3.72;0.80;;;5.90;80.30;;;;;;4984793;28;20487;-70
2022/02/22 02:08:38;;;;;;;5.20;0.90;;;5.80;80.20;;;;;;4977258;28;20061;-70
2022/02/22 02:11:10;;;;;;;3.95;0.68;;;5.80;80.20;;;;;;4985450;28;20052;-70
2022/02/22 02:13:37;;;;;;;4.13;0.80;;;5.80;80.20;;;;;;4985839;28;20057;-69
2022/02/22 02:16:05;;;;;;;3.83;0.75;;;5.80;80.10;;;;;;4990343;28;20050;-69
2022/02/22 02:18:42;;;;;;;5.00;1.45;;;5.80;80.10;;;;;;4987970;28;20543;-72
2022/02/22 02:21:09;;;;;;;2.17;0.52;;;5.80;80.10;;;;;;4974348;28;20043;-70
2022/02/22 02:23:37;;;;;;;9.43;1.35;;;5.70;80.00;;;;;;4970852;28;20113;-71
2022/02/22 02:26:07;;;;;;;3.88;0.52;;;5.70;80.10;;;;;;4982658;28;20488;-70
2022/02/22 02:28:35;;;;;;;4.07;0.60;;;5.70;80.10;;;;;;4987647;28;20053;-70
2022/02/22 02:31:08;;;;;;;5.72;1.63;;;5.70;80.20;;;;;;4988862;28;20137;-71
2022/02/22 02:33:39;;;;;;;4.82;0.73;;;5.70;80.10;;;;;;4988446;28;20069;-70
2022/02/22 02:36:06;;;;;;;3.80;1.35;;;5.70;80.10;;;;;;4989877;28;20643;-71
2022/02/22 02:38:33;;;;;;;6.07;0.60;;;5.70;80.10;;;;;;4987928;28;20041;-71
2022/02/22 02:41:02;;;;;;;4.78;0.75;;;5.70;80.00;;;;;;4986287;28;20195;-71
2022/02/22 02:43:37;;;;;;;2.50;1.10;;;5.70;80.00;;;;;;4979098;28;20054;-71
2022/02/22 02:46:08;;;;;;;5.85;1.00;;;5.70;80.00;;;;;;4984420;28;20046;-70
2022/02/22 02:48:36;;;;;;;2.80;0.82;;;5.70;79.90;;;;;;4989771;28;20255;-69
2022/02/22 02:51:03;;;;;;;4.15;0.93;;;5.70;80.00;;;;;;4987683;28;20108;-70
2022/02/22 02:53:31;;;;;;;2.00;0.63;;;5.70;80.00;;;;;;4974638;28;20396;-71
2022/02/22 02:55:58;;;;;;;5.90;0.90;;;5.70;80.20;;;;;;4992316;28;20280;-71
2022/02/22 02:58:27;;;;;;;1.98;0.52;;;5.70;80.30;;;;;;4987164;28;20054;-70
2022/02/22 03:01:02;;;;;;;9.02;1.35;;;5.70;80.40;;;;;;4986214;28;20057;-71
2022/02/22 03:03:39;;;;;;;4.47;0.73;;;5.70;80.30;;;;;;4986962;28;20045;-70
2022/02/22 03:06:07;;;;;;;5.10;0.90;;;5.70;80.20;;;;;;4990415;28;20487;-70
2022/02/22 03:08:34;;;;;;;2.60;0.38;;;5.80;80.40;;;;;;4988700;28;20050;-71
2022/02/22 03:11:02;;;;;;;4.47;0.57;;;5.80;80.20;;;;;;4990323;28;20050;-70
2022/02/22 03:13:31;;;;;;;3.33;0.90;;;5.80;80.10;;;;;;4990071;28;20053;-69
2022/02/22 03:15:58;;;;;;;4.25;0.90;;;5.80;80.10;;;;;;4987565;28;20046;-70
2022/02/22 03:18:25;;;;;;;2.53;0.55;;;5.80;80.10;;;;;;4989274;28;20050;-70
2022/02/22 03:20:56;;;;;;;4.40;0.80;;;5.80;80.00;;;;;;4990693;28;20047;-69
2022/02/22 03:23:26;;;;;;;2.92;0.90;;;5.80;80.00;;;;;;4990107;28;20606;-72
2022/02/22 03:25:56;;;;;;;4.28;1.00;;;5.80;79.90;;;;;;4991276;28;20061;-70
2022/02/22 03:28:24;;;;;;;3.40;0.95;;;5.80;79.90;;;;;;4989090;28;20137;-69
2022/02/22 03:30:55;;;;;;;5.30;0.85;;;5.80;79.80;;;;;;4988273;28;20060;-70
2022/02/22 03:33:23;;;;;;;6.47;1.20;;;5.80;79.80;;;;;;4987569;28;20060;-71
2022/02/22 03:35:51;;;;;;;9.48;1.58;;;5.80;80.00;;;;;;4990862;28;20050;-71
2022/02/22 03:38:18;;;;;;;6.93;1.60;;;5.80;80.00;;;;;;4990649;28;20128;-71
2022/02/22 03:40:47;;;;;;;5.72;1.20;;;5.80;80.00;;;;;;4986655;28;20135;-70
2022/02/22 03:43:14;;;;;;;4.95;0.82;;;5.80;80.00;;;;;;4986595;28;20062;-70
2022/02/22 03:45:42;;;;;;;2.63;0.65;;;5.80;79.80;;;;;;4989674;28;20081;-69
2022/02/22 03:48:11;;;;;;;3.97;0.77;;;5.80;79.70;;;;;;4984564;28;20041;-70
2022/02/22 03:50:39;;;;;;;4.00;0.85;;;5.80;79.80;;;;;;4984976;28;20034;-71
2022/02/22 03:53:06;;;;;;;2.55;0.88;;;5.80;79.80;;;;;;4989283;28;20050;-71
2022/02/22 03:55:34;;;;;;;3.25;0.73;;;5.80;79.90;;;;;;4987056;28;20058;-71
2022/02/22 03:58:03;;;;;;;3.45;0.88;;;5.70;80.10;;;;;;4990890;28;20084;-70
2022/02/22 04:00:35;;;;;;;3.97;0.95;;;5.70;80.10;;;;;;4953755;28;20363;-71
2022/02/22 04:03:03;;;;;;;4.50;0.77;;;5.70;80.20;;;;;;4986012;28;20404;-71
2022/02/22 04:05:36;;;;;;;6.30;1.05;;;5.70;80.20;;;;;;4975818;28;20052;-71
2022/02/22 04:08:14;;;;;;;1.48;0.60;;;5.70;80.10;;;;;;4980272;28;20042;-70
2022/02/22 04:10:43;;;;;;;5.03;0.60;;;5.70;80.20;;;;;;4981044;28;20061;-70
2022/02/22 04:13:11;;;;;;;7.87;1.10;;;5.70;80.30;;;;;;4985243;28;20541;-71
2022/02/22 04:15:38;;;;;;;2.28;0.45;;;5.70;80.40;;;;;;4980691;28;20391;-71
2022/02/22 04:18:06;;;;;;;3.00;0.75;;;5.70;80.30;;;;;;4987631;28;20047;-72
2022/02/22 04:20:38;;;;;;;5.70;0.98;;;5.70;80.40;;;;;;4980721;28;20053;-70
2022/02/22 04:23:05;;;;;;;5.38;1.15;;;5.70;80.50;;;;;;4984922;28;20057;-70
2022/02/22 04:25:33;;;;;;;3.75;0.93;;;5.60;80.70;;;;;;4983477;28;20148;-72
2022/02/22 04:28:00;;;;;;;5.70;1.42;;;5.60;80.70;;;;;;4979617;28;20053;-75
2022/02/22 04:30:30;;;;;;;4.65;1.52;;;5.60;80.90;;;;;;4984386;28;20050;-70
2022/02/22 04:33:00;;;;;;;1.77;0.50;;;5.60;81.10;;;;;;4982222;28;20075;-71
2022/02/22 04:35:31;;;;;;;7.38;0.98;;;5.60;81.20;;;;;;4978659;28;20049;-70
2022/02/22 04:38:03;;;;;;;8.73;1.65;;;5.60;81.30;;;;;;4979860;28;20042;-70
2022/02/22 04:40:30;;;;;;;4.22;0.65;;;5.60;81.60;;;;;;4982793;28;20487;-71
2022/02/22 04:43:04;;;;;;;5.80;1.15;;;5.70;81.60;;;;;;4984369;28;21519;-70
2022/02/22 04:45:34;;;;;;;4.93;1.27;;;5.70;81.50;;;;;;4990158;28;20517;-69
2022/02/22 04:48:01;;;;;;;4.38;0.70;;;5.70;81.70;;;;;;4993412;28;20112;-71
2022/02/22 04:50:31;;;;;;;8.70;0.80;;;5.60;81.90;;;;;;4991687;28;20139;-71
2022/02/22 04:52:58;;;;;;;3.47;0.90;;;5.60;81.80;;;;;;4993381;28;20509;-71
2022/02/22 04:55:26;;;;;;;4.07;0.75;;;5.60;81.90;;;;;;4991775;28;20523;-70
2022/02/22 04:57:55;;;;;;;1.33;0.38;;;5.60;82.00;;;;;;4991311;28;20050;-73
2022/02/22 05:00:22;;;;;;;5.30;0.82;;;5.60;81.90;;;;;;4988517;28;20180;-71
2022/02/22 05:02:50;;;;;;;1.90;0.77;;;5.50;81.90;;;;;;4991210;28;20060;-71
2022/02/22 05:05:18;;;;;;;2.78;0.63;;;5.50;81.80;;;;;;4993165;28;20050;-71
2022/02/22 05:10:44;;;;;;;1.40;0.40;;;5.40;81.80;;;;;;4986488;28;20165;-70
2022/02/22 05:13:12;;;;;;;5.65;1.02;;;5.40;81.70;;;;;;4989047;28;21007;-71
2022/02/22 05:15:47;;;;;;;4.55;0.70;;;5.40;81.60;;;;;;4990556;28;21018;-69
2022/02/22 05:18:14;;;;;;;7.43;1.35;;;5.40;81.80;;;;;;4989971;28;20040;-71
2022/02/22 05:20:54;;;;;;;6.75;1.33;;;5.30;81.90;;;;;;4992218;28;20087;-72
2022/02/22 05:23:27;;;;;;;4.80;1.65;;;5.30;82.00;;;;;;4989547;28;20043;-72
2022/02/22 05:25:55;;;;;;;6.68;1.15;;;5.30;82.20;;;;;;4992428;28;20124;-70
2022/02/22 05:28:26;;;;;;;2.38;0.80;;;5.30;82.40;;;;;;4995374;28;20116;-72
2022/02/22 05:30:55;;;;;;;2.90;1.00;;;5.30;82.50;;;;;;4989514;28;20061;-71
2022/02/22 05:33:23;;;;;;;7.22;1.30;;;5.30;82.50;;;;;;4991458;28;20058;-72
2022/02/22 05:35:53;;;;;;;3.75;0.80;;;5.30;82.70;;;;;;4991546;28;20113;-71
2022/02/22 05:38:24;;;;;;;6.80;1.00;;;5.30;82.80;;;;;;4975576;28;20087;-71
2022/02/22 05:40:51;;;;;;;4.18;0.93;;;5.30;82.80;;;;;;4991327;28;20059;-72
2022/02/22 05:43:20;;;;;;;7.80;1.20;;;5.30;82.90;;;;;;4992153;28;20049;-69
2022/02/22 05:45:48;;;;;;;3.08;0.70;;;5.30;82.80;;;;;;4990104;28;20050;-71
2022/02/22 05:48:15;;;;;;;5.57;1.30;;;5.30;82.90;;;;;;4992676;28;20476;-71
2022/02/22 05:50:43;;;;;;;8.48;2.17;;;5.30;82.90;;;;;;4994183;28;20050;-72
2022/02/22 05:53:10;;;;;;;6.88;0.80;;;5.30;82.90;;;;;;4991646;28;20075;-71
2022/02/22 05:55:40;;;;;;;5.15;1.15;;;5.30;82.90;;;;;;4991441;28;20152;-70
2022/02/22 05:58:11;;;;;;;3.40;0.98;;;5.20;83.00;;;;;;4989105;28;20041;-70
2022/02/22 06:00:40;;;;;;;3.92;0.68;;;5.20;83.00;;;;;;4990467;28;20042;-71
2022/02/22 06:03:07;;;;;;;2.95;0.85;;;5.20;82.90;;;;;;4991504;28;20038;-72
2022/02/22 06:05:34;;;;;;;3.28;1.38;;;5.30;83.10;;;;;;4990817;28;20042;-72
2022/02/22 06:08:08;;;;;;;9.93;1.05;;;5.30;83.00;;;;;;4994237;28;20423;-70
2022/02/22 06:10:35;;;;;;;7.10;0.95;;;5.30;83.10;;;;;;4992528;28;20042;-70
2022/02/22 06:13:03;;;;;;;5.63;0.93;;;5.30;83.00;;;;;;4995480;28;20112;-70
2022/02/22 06:15:30;;;;;;;4.40;0.93;;;5.30;83.00;;;;;;4989588;28;20135;-71
2022/02/22 06:17:59;;;;;;;4.40;0.80;;;5.30;83.00;;;;;;4992296;28;20127;-70
2022/02/22 06:20:27;;;;;;;5.13;1.17;;;5.30;83.10;;;;;;4992742;28;20058;-70
2022/02/22 06:22:55;;;;;;;6.20;2.00;;;5.30;83.00;;;;;;4989435;28;20046;-71
2022/02/22 06:25:22;;;;;;;3.63;1.15;;;5.30;83.00;;;;;;4990343;28;20054;-70
2022/02/22 06:27:53;;;;;;;5.53;1.45;;;5.30;83.00;;;;;;4991114;28;20409;-71
2022/02/22 06:30:25;;;;;;;6.43;1.40;;;5.30;83.00;;;;;;4989355;28;20309;-71
2022/02/22 06:32:55;;;;;;;7.30;0.90;;;5.30;83.00;;;;;;4989438;28;21745;-71
2022/02/22 06:35:24;;;;;;;9.27;1.92;;;5.40;83.00;;;;;;4992429;28;20062;-72
2022/02/22 06:37:51;;;;;;;7.95;1.33;;;5.40;82.90;;;;;;4993398;28;20048;-70
2022/02/22 06:40:18;;;;;;;4.57;1.17;;;5.30;83.00;;;;;;4986013;28;20064;-70
2022/02/22 06:42:47;;;;;;;4.93;0.57;;;5.40;83.00;;;;;;4975230;28;20952;-73
2022/02/22 06:45:14;;;;;;;5.65;2.53;;;5.40;83.00;;;;;;4990857;28;20053;-70
2022/02/22 06:47:45;;;;;;;5.82;0.85;;;5.40;82.90;;;;;;4986149;28;20162;-70
2022/02/22 06:50:14;;;;;;;5.50;1.30;;;5.40;82.80;;;;;;4982773;28;20084;-72
2022/02/22 06:52:43;;;;;;;4.57;1.58;;;5.40;82.80;;;;;;4985734;28;20512;-70
2022/02/22 06:55:14;;;;;;;6.60;1.48;;;5.40;82.90;;;;;;4985363;28;20112;-71
2022/02/22 06:57:43;;;;;;;4.32;0.88;;;5.40;82.80;;;;;;4988374;28;20180;-71
2022/02/22 07:00:13;;;;;;;5.75;1.30;;;5.40;82.90;;;;;;4986769;28;20053;-71
2022/02/22 07:02:43;;;;;;;5.60;1.58;;;5.40;82.80;;;;;;4986395;28;20048;-70
2022/02/22 07:05:14;;;;;;;3.63;1.05;;;5.40;82.80;;;;;;4985758;28;20050;-71
2022/02/22 07:07:45;;;;;;;8.02;1.33;;;5.40;82.70;;;;;;4987477;28;20046;-70
2022/02/22 07:10:14;;;;;;;6.20;1.00;;;5.40;82.70;;;;;;4983689;28;20049;-70
2022/02/22 07:12:45;;;;;;;2.03;1.13;;;5.30;82.70;;;;;;4985301;28;20129;-69
2022/02/22 07:15:14;;;;;;;;;;;5.30;82.60;;;;;;4972792;28;20137;-67
2022/02/22 07:17:48;;;;;;;2.80;0.90;;;5.30;82.60;;;;;;4987004;28;19980;-69
2022/02/22 07:20:20;;;;;;;5.78;1.25;;;5.30;82.60;;;;;;4986332;28;20038;-70
2022/02/22 07:22:49;;;;;;;7.80;2.00;;;5.30;82.50;;;;;;4987850;28;20042;-69
2022/02/22 07:25:19;;;;;;;7.70;1.17;;;5.30;82.40;;;;;;4983320;28;20093;-70
2022/02/22 07:27:47;;;;;;;3.65;0.90;;;5.30;82.40;;;;;;4984449;28;20129;-70
2022/02/22 07:30:21;;;;;;;6.47;1.45;;;5.30;82.40;;;;;;4985127;28;20049;-70
2022/02/22 07:32:54;;;;;;;6.57;1.90;;;5.30;82.40;;;;;;4988125;28;20210;-70
2022/02/22 07:35:22;;;;;;;3.97;0.95;;;5.30;82.40;;;;;;4994118;28;20081;-70
2022/02/22 07:37:52;;;;;;;4.97;1.50;;;5.30;82.50;;;;;;4997462;28;20069;-69
2022/02/22 07:40:22;;;;;;;12.65;2.45;;;5.30;82.60;;;;;;4988998;28;20050;-69
2022/02/22 07:42:56;;;;;;;7.55;2.13;;;5.40;82.70;;;;;;4986124;28;20058;-69
2022/02/22 07:45:25;;;;;;;6.82;1.75;;;5.40;82.60;;;;;;4970273;28;20050;-71
2022/02/22 07:47:52;;;;;;;6.03;1.73;;;5.50;82.50;;;;;;4985357;28;20188;-69
2022/02/22 07:50:23;;;;;;;12.32;1.88;;;5.50;82.50;;;;;;4989165;28;20133;-70
2022/02/22 07:52:53;;;;;;;6.75;1.05;;;5.50;82.50;;;;;;4984899;28;20053;-70
2022/02/22 07:55:24;;;;;;;6.93;1.33;;;5.50;82.50;;;;;;4985220;28;20049;-70
2022/02/22 07:57:55;;;;;;;4.38;1.17;;;5.60;82.30;;;;;;4982854;28;20056;-68
2022/02/22 08:00:22;;;;;;;4.88;1.15;;;5.60;82.30;;;;;;4981929;28;20315;-68
2022/02/22 08:02:54;;;;;;;10.35;2.78;;;5.60;82.20;;;;;;4983335;28;20057;-69
2022/02/22 08:05:24;;;;;;;5.75;0.82;;;5.70;82.00;;;;;;4981437;28;21627;-70
2022/02/22 08:07:51;;;;;;;5.53;0.93;;;5.70;81.90;;;;;;4969582;28;20514;-70
2022/02/22 08:10:19;;;;;;;10.15;2.20;;;5.70;81.90;;;;;;4983735;28;20042;-70
2022/02/22 08:12:47;;;;;;;7.22;1.70;;;5.70;81.80;;;;;;4985749;28;20811;-70
2022/02/22 08:15:15;;;;;;;4.82;1.92;;;5.80;81.80;;;;;;4981165;28;20065;-70
2022/02/22 08:17:43;;;;;;;7.65;1.15;;;5.80;81.70;;;;;;4982120;28;20156;-70
2022/02/22 08:20:13;;;;;;;2.92;0.85;;;5.90;81.60;;;;;;4984911;28;20499;-70
2022/02/22 08:22:42;;;;;;;4.55;1.08;;;5.90;81.50;;;;;;4985318;28;20093;-70
2022/02/22 08:25:13;;;;;;;8.88;1.48;;;6.00;81.30;;;;;;4983062;28;20050;-70
2022/02/22 08:27:40;;;;;;;;;;;6.10;81.20;;;;;;4984187;28;20054;-71
2022/02/22 08:30:08;;;;;;;6.22;1.10;;;6.20;80.90;;;;;;4982061;28;19929;-71
2022/02/22 08:32:36;;;;;;;4.40;2.03;;;6.20;80.60;;;;;;4962710;28;20420;-70
2022/02/22 08:35:08;;;;;;;10.45;1.08;;;6.30;80.50;;;;;;4963946;28;20547;-70
2022/02/22 08:37:40;;;;;;;8.20;2.42;;;6.40;80.10;;;;;;4984806;28;20034;-70
2022/02/22 08:40:09;;;;;;;6.93;1.02;;;6.40;79.80;;;;;;4986113;28;20046;-70
2022/02/22 08:42:40;;;;;;;7.38;1.27;;;6.40;79.80;;;;;;4985021;28;20272;-70
2022/02/22 08:45:08;;;;;;;5.68;1.40;;;6.40;79.90;;;;;;4983038;28;20159;-71
2022/02/22 08:47:36;;;;;;;7.40;2.47;;;6.40;79.90;;;;;;4982200;28;20054;-70
2022/02/22 08:50:10;;;;;;;9.52;1.55;;;6.40;80.00;;;;;;4985870;28;20116;-71
2022/02/22 08:52:41;;;;;;;7.15;1.67;;;6.40;80.00;;;;;;4983078;28;20697;-71
2022/02/22 08:55:10;;;;;;;4.28;0.90;;;6.40;80.00;;;;;;4983290;28;20495;-71
2022/02/22 08:57:38;;;;;;;3.45;1.27;;;6.50;79.80;;;;;;4983579;28;20069;-70
2022/02/22 09:00:11;;;;;;;8.57;1.83;;;6.50;80.00;;;;;;4980849;28;20482;-70
2022/02/22 09:02:40;;;;;;;6.93;1.83;;;6.60;80.00;;;;;;4982394;28;20061;-70
2022/02/22 09:05:10;;;;;;;5.60;0.75;;;6.70;79.80;;;;;;4984429;28;20054;-70
2022/02/22 09:07:39;;;;;;;7.80;1.43;;;6.70;79.70;;;;;;4982333;28;20069;-69
2022/02/22 09:10:12;;;;;;;10.73;1.58;;;6.80;79.80;;;;;;4984357;28;20034;-70
2022/02/22 09:12:43;;;;;;;11.93;1.80;;;6.90;79.70;;;;;;4983662;28;20054;-70
2022/02/22 09:15:14;;;;;;;5.65;1.58;;;7.00;79.10;;;;;;4965934;28;20416;-70
2022/02/22 09:17:46;;;;;;;3.78;1.38;;;7.10;78.50;;;;;;4982266;28;20173;-71
2022/02/22 09:20:17;;;;;;;4.47;1.20;;;7.10;78.60;;;;;;4982197;28;20061;-71
2022/02/22 09:22:45;;;;;;;;;;;7.10;78.20;;;;;;4984036;28;20050;-71
2022/02/22 09:25:16;;;;;;;7.05;2.30;;;7.10;78.30;;;;;;4986571;28;19940;-70
2022/02/22 09:27:45;;;;;;;6.45;0.90;;;7.20;77.80;;;;;;4984152;28;20047;-72
2022/02/22 09:30:14;;;;;;;11.65;1.10;;;7.20;78.20;;;;;;4984189;28;20096;-70
2022/02/22 09:32:43;;;;;;;20.33;2.22;;;7.30;78.30;;;;;;4988003;28;20116;-71
2022/02/22 09:35:11;;;;;;;6.15;1.40;;;7.40;77.80;;;;;;4985112;28;20054;-70
2022/02/22 09:37:42;;;;;;;4.85;1.42;;;7.50;77.40;;;;;;4987644;28;20440;-71
2022/02/22 09:40:15;;;;;;;5.50;1.23;;;7.60;77.10;;;;;;4985752;28;20282;-70
2022/02/22 09:42:43;;;;;;;6.50;0.93;;;7.60;77.00;;;;;;4986049;28;20041;-71
2022/02/22 09:45:20;;;;;;;4.40;1.35;;;7.70;76.90;;;;;;4984089;28;20109;-70
2022/02/22 09:47:48;;;;;;;10.55;0.93;;;7.80;76.60;;;;;;4984046;28;20057;-70
2022/02/22 09:50:17;;;;;;;9.60;1.55;;;7.80;76.20;;;;;;4963414;28;20049;-70
2022/02/22 09:52:45;;;;;;;4.63;1.38;;;7.80;75.50;;;;;;4983547;28;20169;-70
2022/02/22 09:55:15;;;;;;;4.45;1.17;;;7.70;75.10;;;;;;4987322;28;20045;-71
2022/02/22 09:57:43;;;;;;;5.88;0.80;;;7.80;75.30;;;;;;4986813;28;20074;-71
2022/02/22 10:00:23;;;;;;;4.75;1.80;;;7.70;74.90;;;;;;4983118;28;20408;-69
2022/02/22 10:02:51;;;;;;;4.20;0.95;;;7.70;74.40;;;;;;4984377;28;20070;-70
2022/02/22 10:05:22;;;;;;;7.82;1.95;;;7.60;74.20;;;;;;4984716;28;20127;-70
2022/02/22 10:07:53;;;;;;;8.68;1.40;;;7.50;74.10;;;;;;4983651;28;20060;-70
2022/02/22 10:10:41;;;;;;;8.63;1.52;;;7.40;74.10;;;;;;4968340;28;21892;-70
2022/02/22 10:13:11;;;;;;;7.28;1.50;;;7.40;74.10;;;;;;4987029;28;20046;-71
2022/02/22 10:15:41;;;;;;;5.97;1.00;;;7.40;74.50;;;;;;4968094;28;20133;-70
2022/02/22 10:18:09;;;;;;;7.80;1.88;;;7.50;74.70;;;;;;4986695;28;20052;-70
2022/02/22 10:20:38;;;;;;;9.68;1.33;;;7.50;74.60;;;;;;4985443;28;20041;-70
2022/02/22 10:23:07;;;;;;;5.88;0.90;;;7.50;74.60;;;;;;4981730;28;20551;-70
2022/02/22 10:25:37;;;;;;;6.88;1.15;;;7.50;74.50;;;;;;4984838;28;20119;-71
2022/02/22 10:28:07;;;;;;;5.85;0.82;;;7.60;74.60;;;;;;4986446;28;20064;-70
2022/02/22 10:30:40;;;;;;;10.20;0.98;;;7.50;74.70;;;;;;4986183;28;20612;-69
2022/02/22 10:33:16;;;;;;;3.30;0.85;;;7.70;74.80;;;;;;4984192;28;20046;-72
2022/02/22 10:35:48;;;;;;;3.45;0.93;;;7.70;74.30;;;;;;4986183;28;20050;-71
2022/02/22 10:38:18;;;;;;;6.28;0.98;;;7.70;74.30;;;;;;4985935;28;20049;-71
2022/02/22 10:40:53;;;;;;;9.13;1.27;;;7.80;73.80;;;;;;4984640;28;20054;-70
2022/02/22 10:43:27;;;;;;;7.05;1.10;;;7.80;74.00;;;;;;4989527;28;20050;-71
2022/02/22 10:45:58;;;;;;;5.47;1.35;;;7.90;73.70;;;;;;4991838;28;20050;-69
2022/02/22 10:48:32;;;;;;;8.43;0.80;;;8.00;73.80;;;;;;4989392;28;20251;-71
2022/02/22 10:51:00;;;;;;;6.28;0.88;;;8.00;73.70;;;;;;4971029;28;20053;-70
2022/02/22 10:53:33;;;;;;;3.85;1.15;;;8.00;73.70;;;;;;4985868;28;20408;-71
2022/02/22 10:56:04;;;;;;;5.88;1.10;;;8.10;73.70;;;;;;4986614;28;20072;-70
2022/02/22 10:58:32;;;;;;;;;;;8.10;73.20;;;;;;4986110;28;20057;-70
2022/02/22 11:01:02;;;;;;;4.95;0.77;;;8.10;73.30;;;;;;4985401;28;19936;-70
2022/02/22 11:03:34;;;;;;;5.97;0.93;;;8.20;73.30;;;;;;4967012;28;20806;-70
2022/02/22 11:06:01;;;;;;;7.53;1.70;;;8.30;73.20;;;;;;4986554;28;20697;-71
2022/02/22 11:08:31;;;;;;;5.85;0.80;;;8.40;72.90;;;;;;4985500;28;20097;-70
2022/02/22 11:11:09;;;;;;;6.18;1.13;;;8.40;72.60;;;;;;4986635;28;20088;-71
2022/02/22 11:13:38;;;;;;;7.15;1.13;;;8.40;72.20;;;;;;4984107;28;20077;-70
2022/02/22 11:16:12;;;;;;;5.97;1.00;;;8.40;72.20;;;;;;4985630;28;20056;-70
2022/02/22 11:18:46;;;;;;;5.28;1.08;;;8.40;71.40;;;;;;4983577;28;20050;-70
2022/02/22 11:21:14;;;;;;;10.68;1.25;;;8.40;71.70;;;;;;4982928;28;20145;-70
2022/02/22 11:23:42;;;;;;;9.48;1.08;;;8.40;71.30;;;;;;4980984;28;20042;-69
2022/02/22 11:26:21;;;;;;;5.60;1.63;;;8.40;70.80;;;;;;4983595;28;20045;-70
2022/02/22 11:28:53;;;;;;;3.55;0.98;;;8.40;71.00;;;;;;4984637;28;20042;-70
2022/02/22 11:31:23;;;;;;;8.77;1.10;;;8.40;70.80;;;;;;4970052;28;21677;-69
2022/02/22 11:33:59;;;;;;;5.07;0.63;;;8.40;70.90;;;;;;4983636;28;20066;-71
2022/02/22 11:36:29;;;;;;;6.50;0.98;;;8.50;70.80;;;;;;4975039;28;20050;-71
2022/02/22 11:38:58;;;;;;;5.63;0.57;;;8.60;70.90;;;;;;4986256;28;20046;-70
2022/02/22 11:41:29;;;;;;;2.45;0.85;;;8.60;70.00;;;;;;4986563;28;20050;-70
2022/02/22 11:43:58;;;;;;;;;;;8.60;70.40;;;;;;4984169;28;20082;-70
2022/02/22 11:46:40;;;;;;;4.82;1.10;;;8.60;70.20;;;;;;4985538;28;20460;-70
2022/02/22 11:49:10;;;;;;;4.88;0.65;;;8.70;70.50;;;;;;4964259;28;20046;-70
2022/02/22 11:51:47;;;;;;;3.15;1.00;;;8.70;70.70;;;;;;4966050;28;20107;-70
2022/02/22 11:54:20;;;;;;;6.32;1.33;;;8.70;70.40;;;;;;4981820;28;20595;-71
2022/02/22 11:57:02;;;;;;;5.68;1.17;;;8.70;70.40;;;;;;4985886;28;20594;-70
2022/02/22 11:59:48;;;;;;;3.92;0.85;;;8.70;70.30;;;;;;4965148;28;20416;-70
2022/02/22 12:02:31;;;;;;;4.15;1.08;;;8.70;70.10;;;;;;4966195;28;20481;-70
2022/02/22 12:04:59;;;;;;;6.40;1.08;;;8.70;70.00;;;;;;4967718;28;20196;-72
2022/02/22 12:07:28;;;;;;;6.13;1.35;;;8.70;70.10;;;;;;4982284;28;20050;-70
2022/02/22 12:09:56;;;;;;;5.70;1.00;;;8.80;70.20;;;;;;4986790;28;20085;-70
2022/02/22 12:12:28;;;;;;;;;;;8.70;70.20;;;;;;4985683;28;20149;-71
2022/02/22 12:14:58;;;;;;;2.70;0.90;;;8.70;70.40;;;;;;4973809;28;19930;-70
2022/02/22 12:17:28;;;;;;;5.72;1.85;;;8.70;70.60;;;;;;4984671;28;20058;-70
2022/02/22 12:20:00;;;;;;;6.15;0.70;;;8.70;70.60;;;;;;4983067;28;20536;-72
2022/02/22 12:22:38;;;;;;;4.60;0.88;;;8.70;71.00;;;;;;4985113;28;20052;-71
2022/02/22 12:25:07;;;;;;;11.25;1.85;;;8.70;71.10;;;;;;4987672;28;20105;-73
2022/02/22 12:27:40;;;;;;;7.10;1.80;;;8.70;71.20;;;;;;4984048;28;20046;-73
2022/02/22 12:30:16;;;;;;;6.95;1.30;;;8.70;71.50;;;;;;4983350;28;20128;-69
2022/02/22 12:32:51;;;;;;;5.30;1.52;;;8.70;71.80;;;;;;4985990;28;20684;-69
2022/02/22 12:35:18;;;;;;;4.25;0.90;;;8.70;72.00;;;;;;4985526;28;20060;-71
2022/02/22 12:37:48;;;;;;;5.32;1.08;;;8.80;72.10;;;;;;4984381;28;20082;-70
2022/02/22 12:40:29;;;;;;;9.00;1.83;;;8.80;72.20;;;;;;4982488;28;20673;-70
2022/02/22 12:43:06;;;;;;;4.40;0.90;;;8.80;72.30;;;;;;4985886;28;20050;-71
2022/02/22 12:45:43;;;;;;;5.88;1.02;;;8.90;72.40;;;;;;4972197;28;20042;-70
2022/02/22 12:48:11;;;;;;;5.78;1.05;;;8.80;72.40;;;;;;4983088;28;20511;-70
2022/02/22 12:50:39;;;;;;;10.32;1.02;;;8.90;72.60;;;;;;4985976;28;20503;-70
2022/02/22 12:53:07;;;;;;;3.40;0.77;;;8.90;72.60;;;;;;4984516;28;20155;-71
2022/02/22 12:55:45;;;;;;;4.00;0.80;;;8.90;72.70;;;;;;4982671;28;20064;-72
2022/02/22 12:58:14;;;;;;;6.35;1.08;;;8.90;72.70;;;;;;4982755;28;20061;-71
2022/02/22 13:00:48;;;;;;;7.70;1.10;;;9.00;72.80;;;;;;4970300;28;20989;-70
2022/02/22 13:03:19;;;;;;;3.45;0.50;;;8.90;72.80;;;;;;4985530;28;20050;-71
2022/02/22 13:05:46;;;;;;;;;;;9.00;72.40;;;;;;4988074;28;20050;-72
2022/02/22 13:08:17;;;;;;;1.98;0.88;;;8.90;72.60;;;;;;4984909;28;20379;-70
2022/02/22 13:10:49;;;;;;;4.75;0.65;;;8.90;72.50;;;;;;4985173;28;20590;-70
2022/02/22 13:13:36;;;;;;;6.55;0.90;;;9.00;72.30;;;;;;4979736;28;20179;-70
2022/02/22 13:16:10;;;;;;;5.18;0.93;;;8.90;72.40;;;;;;4986948;28;20054;-71